sensor_id;sensor_type;location;lat;lon;timestamp;P1;durP1;ratioP1;P2;durP2;ratioP2
51654;SDS011;37732;53.106;7.030;2023-12-07T00:01:08;18.15;;;16.25;;
51654;SDS011;37732;53.106;7.030;2023-12-07T00:03:34;17.95;;;16.02;;
51654;SDS011;37732;53.106;7.030;2023-12-07T00:06:00;17.75;;;15.85;;
51654;SDS011;37732;53.106;7.030;2023-12-07T00:08:25;19.27;;;15.70;;
51654;SDS011;37732;53.106;7.030;2023-12-07T00:10:51;19.42;;;16.00;;
51654;SDS011;37732;53.106;7.030;2023-12-07T00:13:17;17.50;;;15.70;;
51654;SDS011;37732;53.106;7.030;2023-12-07T00:15:43;17.85;;;15.77;;
51654;SDS011;37732;53.106;7.030;2023-12-07T00:18:08;18.10;;;16.20;;
51654;SDS011;37732;53.106;7.030;2023-12-07T00:20:34;17.17;;;15.38;;
51654;SDS011;37732;53.106;7.030;2023-12-07T00:23:00;17.25;;;15.32;;
51654;SDS011;37732;53.106;7.030;2023-12-07T00:25:26;21.42;;;16.17;;
51654;SDS011;37732;53.106;7.030;2023-12-07T00:27:51;17.75;;;15.00;;
51654;SDS011;37732;53.106;7.030;2023-12-07T00:30:17;16.67;;;14.88;;
51654;SDS011;37732;53.106;7.030;2023-12-07T00:32:43;19.33;;;16.73;;
51654;SDS011;37732;53.106;7.030;2023-12-07T00:35:09;16.98;;;15.18;;
51654;SDS011;37732;53.106;7.030;2023-12-07T00:37:35;19.30;;;16.25;;
51654;SDS011;37732;53.106;7.030;2023-12-07T00:40:01;17.42;;;15.52;;
51654;SDS011;37732;53.106;7.030;2023-12-07T00:42:27;18.42;;;15.88;;
51654;SDS011;37732;53.106;7.030;2023-12-07T00:44:53;17.88;;;15.75;;
51654;SDS011;37732;53.106;7.030;2023-12-07T00:47:19;16.80;;;14.90;;
51654;SDS011;37732;53.106;7.030;2023-12-07T00:49:44;17.23;;;15.38;;
51654;SDS011;37732;53.106;7.030;2023-12-07T00:52:10;17.52;;;14.73;;
51654;SDS011;37732;53.106;7.030;2023-12-07T00:54:36;17.42;;;15.52;;
51654;SDS011;37732;53.106;7.030;2023-12-07T00:57:01;18.02;;;15.95;;
51654;SDS011;37732;53.106;7.030;2023-12-07T00:59:27;18.45;;;14.60;;
51654;SDS011;37732;53.106;7.030;2023-12-07T01:01:59;18.02;;;15.68;;
51654;SDS011;37732;53.106;7.030;2023-12-07T01:04:26;17.25;;;15.35;;
51654;SDS011;37732;53.106;7.030;2023-12-07T01:06:52;17.80;;;15.90;;
51654;SDS011;37732;53.106;7.030;2023-12-07T01:09:18;17.38;;;15.48;;
51654;SDS011;37732;53.106;7.030;2023-12-07T01:11:44;18.25;;;15.95;;
51654;SDS011;37732;53.106;7.030;2023-12-07T01:14:10;17.33;;;14.48;;
51654;SDS011;37732;53.106;7.030;2023-12-07T01:16:37;17.40;;;15.52;;
51654;SDS011;37732;53.106;7.030;2023-12-07T01:19:03;17.13;;;15.10;;
51654;SDS011;37732;53.106;7.030;2023-12-07T01:21:28;20.50;;;15.27;;
51654;SDS011;37732;53.106;7.030;2023-12-07T01:23:54;20.10;;;15.23;;
51654;SDS011;37732;53.106;7.030;2023-12-07T01:26:20;20.42;;;15.23;;
51654;SDS011;37732;53.106;7.030;2023-12-07T01:28:46;20.08;;;15.82;;
51654;SDS011;37732;53.106;7.030;2023-12-07T01:31:11;15.95;;;14.02;;
51654;SDS011;37732;53.106;7.030;2023-12-07T01:33:37;20.33;;;14.38;;
51654;SDS011;37732;53.106;7.030;2023-12-07T01:36:03;20.70;;;16.08;;
51654;SDS011;37732;53.106;7.030;2023-12-07T01:38:29;18.38;;;15.80;;
51654;SDS011;37732;53.106;7.030;2023-12-07T01:40:54;16.20;;;14.50;;
51654;SDS011;37732;53.106;7.030;2023-12-07T01:43:21;17.08;;;14.77;;
51654;SDS011;37732;53.106;7.030;2023-12-07T01:45:48;16.80;;;14.90;;
51654;SDS011;37732;53.106;7.030;2023-12-07T01:48:18;16.33;;;14.43;;
51654;SDS011;37732;53.106;7.030;2023-12-07T01:50:45;18.02;;;14.85;;
51654;SDS011;37732;53.106;7.030;2023-12-07T01:53:11;19.48;;;15.20;;
51654;SDS011;37732;53.106;7.030;2023-12-07T01:55:38;16.65;;;14.95;;
51654;SDS011;37732;53.106;7.030;2023-12-07T01:58:05;21.13;;;16.08;;
51654;SDS011;37732;53.106;7.030;2023-12-07T02:03:07;19.27;;;13.75;;
51654;SDS011;37732;53.106;7.030;2023-12-07T02:05:33;17.42;;;15.45;;
51654;SDS011;37732;53.106;7.030;2023-12-07T02:07:58;17.20;;;14.32;;
51654;SDS011;37732;53.106;7.030;2023-12-07T02:10:24;17.70;;;14.70;;
51654;SDS011;37732;53.106;7.030;2023-12-07T02:12:50;16.23;;;13.80;;
51654;SDS011;37732;53.106;7.030;2023-12-07T02:15:18;19.42;;;15.05;;
51654;SDS011;37732;53.106;7.030;2023-12-07T02:17:53;16.08;;;14.35;;
51654;SDS011;37732;53.106;7.030;2023-12-07T02:23:01;16.48;;;14.18;;
51654;SDS011;37732;53.106;7.030;2023-12-07T02:25:35;17.13;;;15.27;;
51654;SDS011;37732;53.106;7.030;2023-12-07T02:28:05;15.88;;;13.73;;
51654;SDS011;37732;53.106;7.030;2023-12-07T02:30:31;18.63;;;13.82;;
51654;SDS011;37732;53.106;7.030;2023-12-07T02:32:57;15.05;;;13.45;;
51654;SDS011;37732;53.106;7.030;2023-12-07T02:35:23;13.57;;;12.18;;
51654;SDS011;37732;53.106;7.030;2023-12-07T02:37:50;15.38;;;12.63;;
51654;SDS011;37732;53.106;7.030;2023-12-07T02:40:21;16.33;;;14.48;;
51654;SDS011;37732;53.106;7.030;2023-12-07T02:42:50;16.87;;;14.97;;
51654;SDS011;37732;53.106;7.030;2023-12-07T02:45:18;16.98;;;13.88;;
51654;SDS011;37732;53.106;7.030;2023-12-07T02:47:43;16.88;;;14.40;;
51654;SDS011;37732;53.106;7.030;2023-12-07T02:50:10;14.20;;;12.73;;
51654;SDS011;37732;53.106;7.030;2023-12-07T02:52:37;14.70;;;12.98;;
51654;SDS011;37732;53.106;7.030;2023-12-07T02:55:03;18.60;;;14.07;;
51654;SDS011;37732;53.106;7.030;2023-12-07T02:57:30;19.95;;;14.80;;
51654;SDS011;37732;53.106;7.030;2023-12-07T02:59:56;16.25;;;14.15;;
51654;SDS011;37732;53.106;7.030;2023-12-07T03:02:22;14.95;;;12.73;;
51654;SDS011;37732;53.106;7.030;2023-12-07T03:04:47;14.85;;;13.10;;
51654;SDS011;37732;53.106;7.030;2023-12-07T03:07:13;17.85;;;14.43;;
51654;SDS011;37732;53.106;7.030;2023-12-07T03:09:39;18.25;;;13.65;;
51654;SDS011;37732;53.106;7.030;2023-12-07T03:12:05;16.65;;;13.00;;
51654;SDS011;37732;53.106;7.030;2023-12-07T03:14:32;15.82;;;13.07;;
51654;SDS011;37732;53.106;7.030;2023-12-07T03:16:58;18.17;;;13.85;;
51654;SDS011;37732;53.106;7.030;2023-12-07T03:19:23;15.63;;;12.73;;
51654;SDS011;37732;53.106;7.030;2023-12-07T03:21:49;15.68;;;12.57;;
51654;SDS011;37732;53.106;7.030;2023-12-07T03:24:15;16.83;;;13.30;;
51654;SDS011;37732;53.106;7.030;2023-12-07T03:26:40;16.42;;;12.98;;
51654;SDS011;37732;53.106;7.030;2023-12-07T03:29:06;16.65;;;14.13;;
51654;SDS011;37732;53.106;7.030;2023-12-07T03:31:32;16.75;;;13.63;;
51654;SDS011;37732;53.106;7.030;2023-12-07T03:33:58;15.15;;;12.65;;
51654;SDS011;37732;53.106;7.030;2023-12-07T03:36:26;14.80;;;12.63;;
51654;SDS011;37732;53.106;7.030;2023-12-07T03:38:52;14.00;;;12.43;;
51654;SDS011;37732;53.106;7.030;2023-12-07T03:41:18;16.30;;;12.40;;
51654;SDS011;37732;53.106;7.030;2023-12-07T03:43:43;14.68;;;12.13;;
51654;SDS011;37732;53.106;7.030;2023-12-07T03:46:09;13.95;;;11.95;;
51654;SDS011;37732;53.106;7.030;2023-12-07T03:48:35;15.85;;;11.50;;
51654;SDS011;37732;53.106;7.030;2023-12-07T03:51:01;13.65;;;11.45;;
51654;SDS011;37732;53.106;7.030;2023-12-07T03:53:27;13.90;;;12.40;;
51654;SDS011;37732;53.106;7.030;2023-12-07T03:55:53;15.65;;;13.43;;
51654;SDS011;37732;53.106;7.030;2023-12-07T03:58:19;14.30;;;12.80;;
51654;SDS011;37732;53.106;7.030;2023-12-07T04:00:45;19.20;;;12.60;;
51654;SDS011;37732;53.106;7.030;2023-12-07T04:03:11;14.82;;;13.30;;
51654;SDS011;37732;53.106;7.030;2023-12-07T04:05:36;15.77;;;13.18;;
51654;SDS011;37732;53.106;7.030;2023-12-07T04:08:03;17.73;;;12.60;;
51654;SDS011;37732;53.106;7.030;2023-12-07T04:10:32;18.00;;;13.15;;
51654;SDS011;37732;53.106;7.030;2023-12-07T04:12:57;21.58;;;14.00;;
51654;SDS011;37732;53.106;7.030;2023-12-07T04:15:23;15.70;;;12.60;;
51654;SDS011;37732;53.106;7.030;2023-12-07T04:17:49;15.35;;;12.48;;
51654;SDS011;37732;53.106;7.030;2023-12-07T04:20:15;15.05;;;12.75;;
51654;SDS011;37732;53.106;7.030;2023-12-07T04:22:40;14.45;;;12.75;;
51654;SDS011;37732;53.106;7.030;2023-12-07T04:25:06;17.75;;;13.52;;
51654;SDS011;37732;53.106;7.030;2023-12-07T04:27:33;15.15;;;12.45;;
51654;SDS011;37732;53.106;7.030;2023-12-07T04:29:59;17.27;;;14.43;;
51654;SDS011;37732;53.106;7.030;2023-12-07T04:32:24;20.42;;;14.50;;
51654;SDS011;37732;53.106;7.030;2023-12-07T04:34:51;15.75;;;13.60;;
51654;SDS011;37732;53.106;7.030;2023-12-07T04:37:17;16.67;;;13.93;;
51654;SDS011;37732;53.106;7.030;2023-12-07T04:39:43;15.77;;;12.32;;
51654;SDS011;37732;53.106;7.030;2023-12-07T04:42:09;16.40;;;13.32;;
51654;SDS011;37732;53.106;7.030;2023-12-07T04:44:34;16.42;;;13.75;;
51654;SDS011;37732;53.106;7.030;2023-12-07T04:47:00;16.40;;;13.40;;
51654;SDS011;37732;53.106;7.030;2023-12-07T04:49:26;17.20;;;13.77;;
51654;SDS011;37732;53.106;7.030;2023-12-07T04:51:52;15.68;;;13.48;;
51654;SDS011;37732;53.106;7.030;2023-12-07T04:54:17;18.48;;;14.68;;
51654;SDS011;37732;53.106;7.030;2023-12-07T04:56:44;18.90;;;14.80;;
51654;SDS011;37732;53.106;7.030;2023-12-07T04:59:10;16.80;;;14.75;;
51654;SDS011;37732;53.106;7.030;2023-12-07T05:01:36;16.27;;;13.63;;
51654;SDS011;37732;53.106;7.030;2023-12-07T05:04:05;16.33;;;13.82;;
51654;SDS011;37732;53.106;7.030;2023-12-07T05:06:31;17.48;;;13.88;;
51654;SDS011;37732;53.106;7.030;2023-12-07T05:08:57;15.98;;;14.27;;
51654;SDS011;37732;53.106;7.030;2023-12-07T05:11:23;17.75;;;13.98;;
51654;SDS011;37732;53.106;7.030;2023-12-07T05:13:49;15.25;;;13.57;;
51654;SDS011;37732;53.106;7.030;2023-12-07T05:16:14;18.98;;;14.10;;
51654;SDS011;37732;53.106;7.030;2023-12-07T05:18:40;18.25;;;15.07;;
51654;SDS011;37732;53.106;7.030;2023-12-07T05:21:06;20.55;;;14.98;;
51654;SDS011;37732;53.106;7.030;2023-12-07T05:23:32;19.98;;;14.68;;
51654;SDS011;37732;53.106;7.030;2023-12-07T05:25:58;17.58;;;13.98;;
51654;SDS011;37732;53.106;7.030;2023-12-07T05:28:25;18.70;;;15.65;;
51654;SDS011;37732;53.106;7.030;2023-12-07T05:30:51;18.05;;;14.60;;
51654;SDS011;37732;53.106;7.030;2023-12-07T05:33:17;22.40;;;16.50;;
51654;SDS011;37732;53.106;7.030;2023-12-07T05:35:44;18.98;;;15.48;;
51654;SDS011;37732;53.106;7.030;2023-12-07T05:38:10;17.50;;;14.77;;
51654;SDS011;37732;53.106;7.030;2023-12-07T05:40:36;19.67;;;16.08;;
51654;SDS011;37732;53.106;7.030;2023-12-07T05:43:02;16.83;;;14.93;;
51654;SDS011;37732;53.106;7.030;2023-12-07T05:45:28;18.10;;;15.32;;
51654;SDS011;37732;53.106;7.030;2023-12-07T05:47:55;18.42;;;15.57;;
51654;SDS011;37732;53.106;7.030;2023-12-07T05:50:20;19.42;;;16.27;;
51654;SDS011;37732;53.106;7.030;2023-12-07T05:52:46;21.00;;;17.05;;
51654;SDS011;37732;53.106;7.030;2023-12-07T05:55:12;17.45;;;14.18;;
51654;SDS011;37732;53.106;7.030;2023-12-07T05:57:38;24.83;;;17.55;;
51654;SDS011;37732;53.106;7.030;2023-12-07T06:00:04;18.77;;;15.90;;
51654;SDS011;37732;53.106;7.030;2023-12-07T06:02:34;24.77;;;18.35;;
51654;SDS011;37732;53.106;7.030;2023-12-07T06:05:00;24.17;;;16.70;;
51654;SDS011;37732;53.106;7.030;2023-12-07T06:07:29;21.95;;;17.13;;
51654;SDS011;37732;53.106;7.030;2023-12-07T06:09:54;21.67;;;15.63;;
51654;SDS011;37732;53.106;7.030;2023-12-07T06:12:20;20.48;;;16.25;;
51654;SDS011;37732;53.106;7.030;2023-12-07T06:14:47;19.42;;;15.48;;
51654;SDS011;37732;53.106;7.030;2023-12-07T06:17:13;21.42;;;17.42;;
51654;SDS011;37732;53.106;7.030;2023-12-07T06:19:39;26.27;;;19.17;;
51654;SDS011;37732;53.106;7.030;2023-12-07T06:22:04;22.73;;;17.38;;
51654;SDS011;37732;53.106;7.030;2023-12-07T06:24:31;23.85;;;18.73;;
51654;SDS011;37732;53.106;7.030;2023-12-07T06:26:57;18.85;;;15.93;;
51654;SDS011;37732;53.106;7.030;2023-12-07T06:29:24;22.65;;;17.50;;
51654;SDS011;37732;53.106;7.030;2023-12-07T06:31:50;22.52;;;17.30;;
51654;SDS011;37732;53.106;7.030;2023-12-07T06:34:15;22.75;;;18.27;;
51654;SDS011;37732;53.106;7.030;2023-12-07T06:36:41;24.27;;;17.75;;
51654;SDS011;37732;53.106;7.030;2023-12-07T06:39:09;21.75;;;17.27;;
51654;SDS011;37732;53.106;7.030;2023-12-07T06:41:35;25.00;;;18.65;;
51654;SDS011;37732;53.106;7.030;2023-12-07T06:44:01;23.63;;;17.02;;
51654;SDS011;37732;53.106;7.030;2023-12-07T06:46:26;22.42;;;17.35;;
51654;SDS011;37732;53.106;7.030;2023-12-07T06:48:52;23.85;;;19.48;;
51654;SDS011;37732;53.106;7.030;2023-12-07T06:51:18;27.17;;;18.52;;
51654;SDS011;37732;53.106;7.030;2023-12-07T06:53:43;23.00;;;18.45;;
51654;SDS011;37732;53.106;7.030;2023-12-07T06:56:09;25.60;;;20.40;;
51654;SDS011;37732;53.106;7.030;2023-12-07T06:58:35;34.75;;;21.75;;
51654;SDS011;37732;53.106;7.030;2023-12-07T07:01:00;24.42;;;20.55;;
51654;SDS011;37732;53.106;7.030;2023-12-07T07:03:26;27.67;;;18.83;;
51654;SDS011;37732;53.106;7.030;2023-12-07T07:05:53;22.17;;;17.00;;
51654;SDS011;37732;53.106;7.030;2023-12-07T07:08:21;23.90;;;17.95;;
51654;SDS011;37732;53.106;7.030;2023-12-07T07:10:47;26.58;;;20.02;;
51654;SDS011;37732;53.106;7.030;2023-12-07T07:13:12;23.48;;;18.73;;
51654;SDS011;37732;53.106;7.030;2023-12-07T07:15:41;27.08;;;22.65;;
51654;SDS011;37732;53.106;7.030;2023-12-07T07:18:08;27.95;;;21.05;;
51654;SDS011;37732;53.106;7.030;2023-12-07T07:20:34;24.73;;;19.80;;
51654;SDS011;37732;53.106;7.030;2023-12-07T07:23:00;26.00;;;21.05;;
51654;SDS011;37732;53.106;7.030;2023-12-07T07:25:26;26.45;;;21.42;;
51654;SDS011;37732;53.106;7.030;2023-12-07T07:27:52;26.70;;;21.75;;
51654;SDS011;37732;53.106;7.030;2023-12-07T07:30:19;25.92;;;19.98;;
51654;SDS011;37732;53.106;7.030;2023-12-07T07:32:48;27.17;;;21.23;;
51654;SDS011;37732;53.106;7.030;2023-12-07T07:35:14;32.67;;;23.95;;
51654;SDS011;37732;53.106;7.030;2023-12-07T07:37:40;26.77;;;20.77;;
51654;SDS011;37732;53.106;7.030;2023-12-07T07:40:07;24.83;;;18.98;;
51654;SDS011;37732;53.106;7.030;2023-12-07T07:42:36;26.80;;;18.23;;
51654;SDS011;37732;53.106;7.030;2023-12-07T07:45:04;28.25;;;22.50;;
51654;SDS011;37732;53.106;7.030;2023-12-07T07:47:31;28.20;;;22.45;;
51654;SDS011;37732;53.106;7.030;2023-12-07T07:49:57;25.15;;;19.10;;
51654;SDS011;37732;53.106;7.030;2023-12-07T07:52:23;29.30;;;21.63;;
51654;SDS011;37732;53.106;7.030;2023-12-07T07:54:49;26.60;;;20.48;;
51654;SDS011;37732;53.106;7.030;2023-12-07T07:57:15;28.73;;;21.00;;
51654;SDS011;37732;53.106;7.030;2023-12-07T07:59:41;26.80;;;20.77;;
51654;SDS011;37732;53.106;7.030;2023-12-07T08:02:06;29.42;;;21.35;;
51654;SDS011;37732;53.106;7.030;2023-12-07T08:04:32;29.17;;;21.85;;
51654;SDS011;37732;53.106;7.030;2023-12-07T08:06:58;31.83;;;23.30;;
51654;SDS011;37732;53.106;7.030;2023-12-07T08:09:23;23.70;;;18.38;;
51654;SDS011;37732;53.106;7.030;2023-12-07T08:11:49;24.52;;;19.08;;
51654;SDS011;37732;53.106;7.030;2023-12-07T08:14:15;31.48;;;24.13;;
51654;SDS011;37732;53.106;7.030;2023-12-07T08:16:44;27.50;;;21.05;;
51654;SDS011;37732;53.106;7.030;2023-12-07T08:19:11;26.38;;;19.92;;
51654;SDS011;37732;53.106;7.030;2023-12-07T08:21:37;26.55;;;21.27;;
51654;SDS011;37732;53.106;7.030;2023-12-07T08:24:04;32.17;;;21.38;;
51654;SDS011;37732;53.106;7.030;2023-12-07T08:26:31;26.98;;;21.88;;
51654;SDS011;37732;53.106;7.030;2023-12-07T08:28:56;29.77;;;24.27;;
51654;SDS011;37732;53.106;7.030;2023-12-07T08:31:22;31.15;;;24.58;;
51654;SDS011;37732;53.106;7.030;2023-12-07T08:33:49;27.73;;;23.42;;
51654;SDS011;37732;53.106;7.030;2023-12-07T08:36:16;27.15;;;22.45;;
51654;SDS011;37732;53.106;7.030;2023-12-07T08:38:42;27.63;;;22.42;;
51654;SDS011;37732;53.106;7.030;2023-12-07T08:41:07;30.08;;;23.63;;
51654;SDS011;37732;53.106;7.030;2023-12-07T08:43:33;30.33;;;23.80;;
51654;SDS011;37732;53.106;7.030;2023-12-07T08:45:59;32.05;;;25.25;;
51654;SDS011;37732;53.106;7.030;2023-12-07T08:48:25;31.35;;;24.73;;
51654;SDS011;37732;53.106;7.030;2023-12-07T08:50:50;30.98;;;23.98;;
51654;SDS011;37732;53.106;7.030;2023-12-07T08:53:16;28.98;;;22.55;;
51654;SDS011;37732;53.106;7.030;2023-12-07T08:55:42;31.63;;;24.15;;
51654;SDS011;37732;53.106;7.030;2023-12-07T08:58:08;29.58;;;24.73;;
51654;SDS011;37732;53.106;7.030;2023-12-07T09:00:35;32.97;;;27.08;;
51654;SDS011;37732;53.106;7.030;2023-12-07T09:03:02;33.28;;;25.50;;
51654;SDS011;37732;53.106;7.030;2023-12-07T09:05:28;29.50;;;24.50;;
51654;SDS011;37732;53.106;7.030;2023-12-07T09:07:55;29.48;;;25.50;;
51654;SDS011;37732;53.106;7.030;2023-12-07T09:10:21;31.38;;;24.90;;
51654;SDS011;37732;53.106;7.030;2023-12-07T09:12:47;30.80;;;26.23;;
51654;SDS011;37732;53.106;7.030;2023-12-07T09:15:13;32.13;;;25.48;;
51654;SDS011;37732;53.106;7.030;2023-12-07T09:17:39;29.40;;;24.17;;
51654;SDS011;37732;53.106;7.030;2023-12-07T09:20:06;32.80;;;25.45;;
51654;SDS011;37732;53.106;7.030;2023-12-07T09:22:43;25.52;;;22.55;;
51654;SDS011;37732;53.106;7.030;2023-12-07T09:25:10;28.45;;;25.10;;
51654;SDS011;37732;53.106;7.030;2023-12-07T09:27:39;31.02;;;24.88;;
51654;SDS011;37732;53.106;7.030;2023-12-07T09:30:06;32.75;;;26.98;;
51654;SDS011;37732;53.106;7.030;2023-12-07T09:32:35;31.20;;;25.58;;
51654;SDS011;37732;53.106;7.030;2023-12-07T09:35:05;31.27;;;26.33;;
51654;SDS011;37732;53.106;7.030;2023-12-07T09:37:32;31.70;;;25.27;;
51654;SDS011;37732;53.106;7.030;2023-12-07T09:39:58;34.75;;;28.40;;
51654;SDS011;37732;53.106;7.030;2023-12-07T09:42:25;34.97;;;28.98;;
51654;SDS011;37732;53.106;7.030;2023-12-07T09:44:51;30.52;;;24.75;;
51654;SDS011;37732;53.106;7.030;2023-12-07T09:47:17;30.23;;;25.40;;
51654;SDS011;37732;53.106;7.030;2023-12-07T09:49:43;27.33;;;23.65;;
51654;SDS011;37732;53.106;7.030;2023-12-07T09:52:10;32.10;;;26.45;;
51654;SDS011;37732;53.106;7.030;2023-12-07T09:54:40;27.88;;;23.27;;
51654;SDS011;37732;53.106;7.030;2023-12-07T09:57:06;27.88;;;24.02;;
51654;SDS011;37732;53.106;7.030;2023-12-07T09:59:34;28.83;;;23.08;;
51654;SDS011;37732;53.106;7.030;2023-12-07T10:02:01;27.50;;;22.13;;
51654;SDS011;37732;53.106;7.030;2023-12-07T10:04:27;25.02;;;22.10;;
51654;SDS011;37732;53.106;7.030;2023-12-07T10:06:53;28.42;;;23.48;;
51654;SDS011;37732;53.106;7.030;2023-12-07T10:09:19;29.77;;;22.23;;
51654;SDS011;37732;53.106;7.030;2023-12-07T10:11:46;25.73;;;21.92;;
51654;SDS011;37732;53.106;7.030;2023-12-07T10:14:12;25.77;;;21.27;;
51654;SDS011;37732;53.106;7.030;2023-12-07T10:16:39;25.00;;;22.30;;
51654;SDS011;37732;53.106;7.030;2023-12-07T10:19:22;28.00;;;22.60;;
51654;SDS011;37732;53.106;7.030;2023-12-07T10:21:48;26.25;;;23.00;;
51654;SDS011;37732;53.106;7.030;2023-12-07T10:24:18;24.40;;;21.73;;
51654;SDS011;37732;53.106;7.030;2023-12-07T10:26:45;28.75;;;23.80;;
51654;SDS011;37732;53.106;7.030;2023-12-07T10:29:12;26.27;;;22.85;;
51654;SDS011;37732;53.106;7.030;2023-12-07T10:31:38;26.77;;;23.02;;
51654;SDS011;37732;53.106;7.030;2023-12-07T10:34:04;24.73;;;21.92;;
51654;SDS011;37732;53.106;7.030;2023-12-07T10:36:30;25.08;;;22.15;;
51654;SDS011;37732;53.106;7.030;2023-12-07T10:38:56;25.85;;;22.15;;
51654;SDS011;37732;53.106;7.030;2023-12-07T10:41:25;25.60;;;22.00;;
51654;SDS011;37732;53.106;7.030;2023-12-07T10:43:52;26.20;;;23.25;;
51654;SDS011;37732;53.106;7.030;2023-12-07T10:46:29;24.98;;;22.05;;
51654;SDS011;37732;53.106;7.030;2023-12-07T10:48:59;25.77;;;22.15;;
51654;SDS011;37732;53.106;7.030;2023-12-07T10:51:31;26.58;;;23.02;;
51654;SDS011;37732;53.106;7.030;2023-12-07T10:54:06;27.42;;;22.83;;
51654;SDS011;37732;53.106;7.030;2023-12-07T10:56:43;27.77;;;23.70;;
51654;SDS011;37732;53.106;7.030;2023-12-07T10:59:10;26.70;;;23.80;;
51654;SDS011;37732;53.106;7.030;2023-12-07T11:01:39;27.83;;;23.85;;
51654;SDS011;37732;53.106;7.030;2023-12-07T11:04:07;26.40;;;23.60;;
51654;SDS011;37732;53.106;7.030;2023-12-07T11:06:36;26.70;;;23.83;;
51654;SDS011;37732;53.106;7.030;2023-12-07T11:09:04;26.67;;;23.70;;
51654;SDS011;37732;53.106;7.030;2023-12-07T11:11:48;28.90;;;25.00;;
51654;SDS011;37732;53.106;7.030;2023-12-07T11:14:16;27.77;;;24.55;;
51654;SDS011;37732;53.106;7.030;2023-12-07T11:16:46;30.48;;;25.17;;
51654;SDS011;37732;53.106;7.030;2023-12-07T11:22:01;35.05;;;24.33;;
51654;SDS011;37732;53.106;7.030;2023-12-07T11:24:28;29.75;;;25.83;;
51654;SDS011;37732;53.106;7.030;2023-12-07T11:26:57;31.45;;;26.30;;
51654;SDS011;37732;53.106;7.030;2023-12-07T11:29:28;31.25;;;26.38;;
51654;SDS011;37732;53.106;7.030;2023-12-07T11:32:06;34.28;;;27.80;;
51654;SDS011;37732;53.106;7.030;2023-12-07T11:34:42;32.78;;;26.60;;
51654;SDS011;37732;53.106;7.030;2023-12-07T11:37:09;32.97;;;27.95;;
51654;SDS011;37732;53.106;7.030;2023-12-07T11:39:44;31.77;;;28.40;;
51654;SDS011;37732;53.106;7.030;2023-12-07T11:42:18;33.08;;;28.05;;
51654;SDS011;37732;53.106;7.030;2023-12-07T11:44:47;34.40;;;27.50;;
51654;SDS011;37732;53.106;7.030;2023-12-07T11:47:20;34.30;;;29.05;;
51654;SDS011;37732;53.106;7.030;2023-12-07T11:49:46;36.70;;;30.55;;
51654;SDS011;37732;53.106;7.030;2023-12-07T11:52:16;36.08;;;28.10;;
51654;SDS011;37732;53.106;7.030;2023-12-07T11:54:44;41.90;;;24.15;;
51654;SDS011;37732;53.106;7.030;2023-12-07T11:57:11;31.70;;;23.65;;
51654;SDS011;37732;53.106;7.030;2023-12-07T11:59:37;75.32;;;33.63;;
51654;SDS011;37732;53.106;7.030;2023-12-07T12:02:03;27.17;;;22.25;;
51654;SDS011;37732;53.106;7.030;2023-12-07T12:04:29;52.85;;;28.58;;
51654;SDS011;37732;53.106;7.030;2023-12-07T12:06:55;53.40;;;30.33;;
51654;SDS011;37732;53.106;7.030;2023-12-07T12:09:20;44.80;;;30.00;;
51654;SDS011;37732;53.106;7.030;2023-12-07T12:11:49;39.15;;;28.58;;
51654;SDS011;37732;53.106;7.030;2023-12-07T12:14:17;35.00;;;25.40;;
51654;SDS011;37732;53.106;7.030;2023-12-07T12:16:45;35.97;;;26.13;;
51654;SDS011;37732;53.106;7.030;2023-12-07T12:19:11;36.58;;;26.20;;
51654;SDS011;37732;53.106;7.030;2023-12-07T12:21:41;60.40;;;28.98;;
51654;SDS011;37732;53.106;7.030;2023-12-07T12:24:08;37.42;;;25.05;;
51654;SDS011;37732;53.106;7.030;2023-12-07T12:26:35;29.60;;;24.13;;
51654;SDS011;37732;53.106;7.030;2023-12-07T12:29:03;66.93;;;33.00;;
51654;SDS011;37732;53.106;7.030;2023-12-07T12:31:30;48.15;;;29.58;;
51654;SDS011;37732;53.106;7.030;2023-12-07T12:33:56;47.95;;;30.65;;
51654;SDS011;37732;53.106;7.030;2023-12-07T12:36:22;44.75;;;29.15;;
51654;SDS011;37732;53.106;7.030;2023-12-07T12:38:51;61.53;;;31.05;;
51654;SDS011;37732;53.106;7.030;2023-12-07T12:41:18;41.85;;;26.70;;
51654;SDS011;37732;53.106;7.030;2023-12-07T12:43:44;46.08;;;32.25;;
51654;SDS011;37732;53.106;7.030;2023-12-07T12:46:10;33.13;;;27.45;;
51654;SDS011;37732;53.106;7.030;2023-12-07T12:48:37;45.67;;;31.10;;
51654;SDS011;37732;53.106;7.030;2023-12-07T12:51:12;51.70;;;31.88;;
51654;SDS011;37732;53.106;7.030;2023-12-07T12:53:44;35.72;;;27.20;;
51654;SDS011;37732;53.106;7.030;2023-12-07T12:56:12;65.10;;;34.05;;
51654;SDS011;37732;53.106;7.030;2023-12-07T12:58:38;50.40;;;30.75;;
51654;SDS011;37732;53.106;7.030;2023-12-07T13:01:04;55.70;;;31.83;;
51654;SDS011;37732;53.106;7.030;2023-12-07T13:03:31;56.95;;;30.98;;
51654;SDS011;37732;53.106;7.030;2023-12-07T13:05:57;78.40;;;34.70;;
51654;SDS011;37732;53.106;7.030;2023-12-07T13:08:23;56.92;;;30.02;;
51654;SDS011;37732;53.106;7.030;2023-12-07T13:10:49;53.13;;;29.10;;
51654;SDS011;37732;53.106;7.030;2023-12-07T13:13:15;72.32;;;34.47;;
51654;SDS011;37732;53.106;7.030;2023-12-07T13:15:41;59.83;;;33.63;;
51654;SDS011;37732;53.106;7.030;2023-12-07T13:18:07;83.50;;;36.85;;
51654;SDS011;37732;53.106;7.030;2023-12-07T13:20:36;49.47;;;30.73;;
51654;SDS011;37732;53.106;7.030;2023-12-07T13:23:02;49.63;;;31.05;;
51654;SDS011;37732;53.106;7.030;2023-12-07T13:25:28;44.90;;;30.20;;
51654;SDS011;37732;53.106;7.030;2023-12-07T13:27:54;46.92;;;30.75;;
51654;SDS011;37732;53.106;7.030;2023-12-07T13:30:19;48.83;;;30.83;;
51654;SDS011;37732;53.106;7.030;2023-12-07T13:32:45;66.22;;;37.65;;
51654;SDS011;37732;53.106;7.030;2023-12-07T13:35:11;47.17;;;32.28;;
51654;SDS011;37732;53.106;7.030;2023-12-07T13:37:38;48.78;;;32.25;;
51654;SDS011;37732;53.106;7.030;2023-12-07T13:40:03;52.80;;;31.65;;
51654;SDS011;37732;53.106;7.030;2023-12-07T13:42:35;47.35;;;31.90;;
51654;SDS011;37732;53.106;7.030;2023-12-07T13:45:01;60.13;;;37.42;;
51654;SDS011;37732;53.106;7.030;2023-12-07T13:47:27;52.42;;;34.40;;
51654;SDS011;37732;53.106;7.030;2023-12-07T13:49:57;52.95;;;30.40;;
51654;SDS011;37732;53.106;7.030;2023-12-07T13:52:23;99.03;;;43.85;;
51654;SDS011;37732;53.106;7.030;2023-12-07T13:54:49;98.60;;;46.65;;
51654;SDS011;37732;53.106;7.030;2023-12-07T13:57:15;73.38;;;39.22;;
51654;SDS011;37732;53.106;7.030;2023-12-07T13:59:41;96.47;;;41.75;;
51654;SDS011;37732;53.106;7.030;2023-12-07T14:02:07;82.30;;;37.92;;
51654;SDS011;37732;53.106;7.030;2023-12-07T14:04:33;91.88;;;44.42;;
51654;SDS011;37732;53.106;7.030;2023-12-07T14:07:09;77.13;;;39.22;;
51654;SDS011;37732;53.106;7.030;2023-12-07T14:09:36;66.93;;;37.00;;
51654;SDS011;37732;53.106;7.030;2023-12-07T14:12:04;150.80;;;55.40;;
51654;SDS011;37732;53.106;7.030;2023-12-07T14:14:30;61.67;;;37.88;;
51654;SDS011;37732;53.106;7.030;2023-12-07T14:16:56;61.05;;;37.35;;
51654;SDS011;37732;53.106;7.030;2023-12-07T14:19:22;122.45;;;51.67;;
51654;SDS011;37732;53.106;7.030;2023-12-07T14:21:48;122.82;;;54.63;;
51654;SDS011;37732;53.106;7.030;2023-12-07T14:24:14;65.68;;;36.25;;
51654;SDS011;37732;53.106;7.030;2023-12-07T14:26:42;63.80;;;36.97;;